OICS  Sanandaj  Airport

Iran

Add Bookmark
ICAO OICS
IATA SDG
Type Airport
Status Operational
Latitude
35° 14' 45" N
35.245899
Longitude
47° 0' 33" E
47.009201
Local (DST + 5) UTC (GMT + 4)
Aug 1, 2015 03:56 Jul 31, 2015 23:26
Sunrise-Sunset Local UTC
Begin Civil Twilight 06:01 01:31
Sunrise 06:29 01:59
Sunset 08:27 15:57
End Civil Twilight 08:55 16:25
VFR
VFR
MVFR
MVFR
IFR
IFR
LIFR
LIFR
Unknown
Unavailable

Current Weather

METAR Observed VFR
OICS 311654Z 01004KT 9999 SCT040 35/M02 Q1012 Fri, Jul 31, 2015 @ 16:54 UTC
(6 Hours, 32 Minutes ago)
Visual Flight Rules
Wind Visibility Clouds Conditions
010° at 4 knots (7 kph) 10 km or more
  • Scattered at 4,000 ft AGL
  • No significant weather
Temperatures Readings Precipitation
Current Temp
35°C
95°F
Dewpoint
-2°C
28°F
Humidity 9%
Altimeter 29.88" Hg
Sea Level Pressure 1,012 mb
Field Elevation
1,373 m
4,505 ft
None Recorded
-
-

CheckWX.com is intended as a tool to help pilots better visualize weather data. It is not intended as a substitute for an official weather briefing obtained from a Flight Service Station. CheckWX.com does not meet the FAA requirements for an official pre-flight weather briefing. Therefore, it's important that pilots still call and obtain an official FSS pre-flight weather briefing.

© 2007-2015 CheckWX.com
23:26:10 UTC